sensor_id;sensor_type;location;lat;lon;timestamp;temperature;humidity
58519;DHT22;44310;48.106;12.008;2023-03-21T00:01:51;16.70;90.90
58519;DHT22;44310;48.106;12.008;2023-03-21T00:04:20;16.70;90.90
58519;DHT22;44310;48.106;12.008;2023-03-21T00:06:48;16.70;90.80
58519;DHT22;44310;48.106;12.008;2023-03-21T00:09:15;16.90;91.20
58519;DHT22;44310;48.106;12.008;2023-03-21T00:11:43;16.80;91.30
58519;DHT22;44310;48.106;12.008;2023-03-21T00:14:10;16.70;91.10
58519;DHT22;44310;48.106;12.008;2023-03-21T00:16:40;16.80;91.10
58519;DHT22;44310;48.106;12.008;2023-03-21T00:19:08;16.80;91.10
58519;DHT22;44310;48.106;12.008;2023-03-21T00:21:36;16.80;91.00
58519;DHT22;44310;48.106;12.008;2023-03-21T00:24:24;16.80;91.00
58519;DHT22;44310;48.106;12.008;2023-03-21T00:26:51;16.80;90.90
58519;DHT22;44310;48.106;12.008;2023-03-21T00:29:19;16.70;90.80
58519;DHT22;44310;48.106;12.008;2023-03-21T00:31:46;16.80;90.90
58519;DHT22;44310;48.106;12.008;2023-03-21T00:34:14;16.80;90.80
58519;DHT22;44310;48.106;12.008;2023-03-21T00:36:41;16.80;90.70
58519;DHT22;44310;48.106;12.008;2023-03-21T00:39:09;16.80;90.70
58519;DHT22;44310;48.106;12.008;2023-03-21T00:41:36;16.80;90.70
58519;DHT22;44310;48.106;12.008;2023-03-21T00:44:10;16.80;90.70
58519;DHT22;44310;48.106;12.008;2023-03-21T00:46:40;16.80;90.70
58519;DHT22;44310;48.106;12.008;2023-03-21T00:49:26;16.80;90.70
58519;DHT22;44310;48.106;12.008;2023-03-21T00:51:54;16.80;90.70
58519;DHT22;44310;48.106;12.008;2023-03-21T00:54:25;16.60;90.70
58519;DHT22;44310;48.106;12.008;2023-03-21T00:56:52;16.80;91.00
58519;DHT22;44310;48.106;12.008;2023-03-21T00:59:20;16.90;91.20
58519;DHT22;44310;48.106;12.008;2023-03-21T01:01:47;16.90;91.20
58519;DHT22;44310;48.106;12.008;2023-03-21T01:04:14;16.80;91.40
58519;DHT22;44310;48.106;12.008;2023-03-21T01:06:43;16.60;91.50
58519;DHT22;44310;48.106;12.008;2023-03-21T01:09:15;16.90;91.60
58519;DHT22;44310;48.106;12.008;2023-03-21T01:11:43;16.90;91.70
58519;DHT22;44310;48.106;12.008;2023-03-21T01:14:12;16.80;91.60
58519;DHT22;44310;48.106;12.008;2023-03-21T01:16:51;17.00;91.90
58519;DHT22;44310;48.106;12.008;2023-03-21T01:19:21;16.30;91.30
58519;DHT22;44310;48.106;12.008;2023-03-21T01:21:57;16.70;91.50
58519;DHT22;44310;48.106;12.008;2023-03-21T01:24:24;16.70;91.50
58519;DHT22;44310;48.106;12.008;2023-03-21T01:26:51;16.80;91.50
58519;DHT22;44310;48.106;12.008;2023-03-21T01:29:18;16.50;91.40
58519;DHT22;44310;48.106;12.008;2023-03-21T01:31:46;16.60;91.30
58519;DHT22;44310;48.106;12.008;2023-03-21T01:34:13;16.40;91.40
58519;DHT22;44310;48.106;12.008;2023-03-21T01:36:40;16.60;91.30
58519;DHT22;44310;48.106;12.008;2023-03-21T01:39:07;16.70;91.50
58519;DHT22;44310;48.106;12.008;2023-03-21T01:41:40;16.70;91.80
58519;DHT22;44310;48.106;12.008;2023-03-21T01:44:15;16.70;91.90
58519;DHT22;44310;48.106;12.008;2023-03-21T01:49:37;17.20;91.90
58519;DHT22;44310;48.106;12.008;2023-03-21T01:52:10;16.80;91.80
58519;DHT22;44310;48.106;12.008;2023-03-21T01:54:54;16.80;92.00
58519;DHT22;44310;48.106;12.008;2023-03-21T01:57:26;16.80;92.00
58519;DHT22;44310;48.106;12.008;2023-03-21T02:00:08;16.70;91.60
58519;DHT22;44310;48.106;12.008;2023-03-21T02:02:43;16.70;91.50
58519;DHT22;44310;48.106;12.008;2023-03-21T02:05:40;16.70;91.50
58519;DHT22;44310;48.106;12.008;2023-03-21T02:08:10;16.70;91.50
58519;DHT22;44310;48.106;12.008;2023-03-21T02:10:42;16.70;91.50
58519;DHT22;44310;48.106;12.008;2023-03-21T02:13:10;16.70;91.40
58519;DHT22;44310;48.106;12.008;2023-03-21T02:15:40;16.70;91.50
58519;DHT22;44310;48.106;12.008;2023-03-21T02:18:31;16.70;91.50
58519;DHT22;44310;48.106;12.008;2023-03-21T02:21:10;16.70;91.50
58519;DHT22;44310;48.106;12.008;2023-03-21T02:24:13;16.70;91.40
58519;DHT22;44310;48.106;12.008;2023-03-21T02:37:58;16.60;90.90
58519;DHT22;44310;48.106;12.008;2023-03-21T02:40:41;17.30;91.10
58519;DHT22;44310;48.106;12.008;2023-03-21T02:43:29;16.60;91.30
58519;DHT22;44310;48.106;12.008;2023-03-21T02:46:07;16.70;91.70
58519;DHT22;44310;48.106;12.008;2023-03-21T02:48:41;16.80;91.90
58519;DHT22;44310;48.106;12.008;2023-03-21T02:51:20;16.80;91.80
58519;DHT22;44310;48.106;12.008;2023-03-21T02:54:00;16.80;91.80
58519;DHT22;44310;48.106;12.008;2023-03-21T02:56:51;16.80;91.90
58519;DHT22;44310;48.106;12.008;2023-03-21T02:59:21;16.70;91.90
58519;DHT22;44310;48.106;12.008;2023-03-21T03:01:50;16.80;91.90
58519;DHT22;44310;48.106;12.008;2023-03-21T03:04:23;16.80;92.00
58519;DHT22;44310;48.106;12.008;2023-03-21T03:07:02;16.80;91.90
58519;DHT22;44310;48.106;12.008;2023-03-21T03:09:51;16.80;92.10
58519;DHT22;44310;48.106;12.008;2023-03-21T03:18:10;17.60;92.30
58519;DHT22;44310;48.106;12.008;2023-03-21T03:21:02;16.80;92.20
58519;DHT22;44310;48.106;12.008;2023-03-21T03:23:43;16.90;92.20
58519;DHT22;44310;48.106;12.008;2023-03-21T03:26:16;16.80;92.20
58519;DHT22;44310;48.106;12.008;2023-03-21T03:28:51;16.60;92.10
58519;DHT22;44310;48.106;12.008;2023-03-21T03:31:28;16.80;91.90
58519;DHT22;44310;48.106;12.008;2023-03-21T03:34:01;16.70;91.70
58519;DHT22;44310;48.106;12.008;2023-03-21T03:36:31;16.10;91.50
58519;DHT22;44310;48.106;12.008;2023-03-21T03:39:03;16.20;91.50
58519;DHT22;44310;48.106;12.008;2023-03-21T03:41:34;16.60;91.60
58519;DHT22;44310;48.106;12.008;2023-03-21T03:44:23;16.60;91.50
58519;DHT22;44310;48.106;12.008;2023-03-21T03:50:33;16.60;91.40
58519;DHT22;44310;48.106;12.008;2023-03-21T03:53:17;16.60;91.30
58519;DHT22;44310;48.106;12.008;2023-03-21T03:55:46;16.70;91.70
58519;DHT22;44310;48.106;12.008;2023-03-21T03:58:18;16.70;92.00
58519;DHT22;44310;48.106;12.008;2023-03-21T04:00:53;17.10;92.00
58519;DHT22;44310;48.106;12.008;2023-03-21T04:03:21;16.60;91.80
58519;DHT22;44310;48.106;12.008;2023-03-21T04:05:48;16.80;91.80
58519;DHT22;44310;48.106;12.008;2023-03-21T04:08:16;16.70;91.70
58519;DHT22;44310;48.106;12.008;2023-03-21T04:10:43;16.80;91.70
58519;DHT22;44310;48.106;12.008;2023-03-21T04:13:10;16.80;91.60
58519;DHT22;44310;48.106;12.008;2023-03-21T04:15:37;16.70;91.50
58519;DHT22;44310;48.106;12.008;2023-03-21T04:18:04;16.70;91.50
58519;DHT22;44310;48.106;12.008;2023-03-21T04:20:32;17.00;91.70
58519;DHT22;44310;48.106;12.008;2023-03-21T04:23:04;16.90;91.80
58519;DHT22;44310;48.106;12.008;2023-03-21T04:25:35;16.80;91.80
58519;DHT22;44310;48.106;12.008;2023-03-21T04:28:06;16.80;91.80
58519;DHT22;44310;48.106;12.008;2023-03-21T04:30:33;16.80;91.70
58519;DHT22;44310;48.106;12.008;2023-03-21T04:33:00;16.80;91.50
58519;DHT22;44310;48.106;12.008;2023-03-21T04:35:28;16.70;91.30
58519;DHT22;44310;48.106;12.008;2023-03-21T04:37:55;16.70;91.20
58519;DHT22;44310;48.106;12.008;2023-03-21T04:40:22;16.60;91.10
58519;DHT22;44310;48.106;12.008;2023-03-21T04:42:51;16.60;91.10
58519;DHT22;44310;48.106;12.008;2023-03-21T04:45:18;16.60;91.10
58519;DHT22;44310;48.106;12.008;2023-03-21T04:47:45;16.70;91.60
58519;DHT22;44310;48.106;12.008;2023-03-21T04:50:13;17.40;92.10
58519;DHT22;44310;48.106;12.008;2023-03-21T04:52:40;16.80;92.20
58519;DHT22;44310;48.106;12.008;2023-03-21T04:55:07;16.90;92.30
58519;DHT22;44310;48.106;12.008;2023-03-21T04:57:36;16.90;92.40
58519;DHT22;44310;48.106;12.008;2023-03-21T05:00:06;17.10;92.40
58519;DHT22;44310;48.106;12.008;2023-03-21T05:02:37;16.90;92.50
58519;DHT22;44310;48.106;12.008;2023-03-21T05:05:05;16.90;92.60
58519;DHT22;44310;48.106;12.008;2023-03-21T05:07:32;16.90;92.60
58519;DHT22;44310;48.106;12.008;2023-03-21T05:09:59;17.10;92.70
58519;DHT22;44310;48.106;12.008;2023-03-21T05:12:28;16.90;92.50
58519;DHT22;44310;48.106;12.008;2023-03-21T05:14:55;17.80;92.70
58519;DHT22;44310;48.106;12.008;2023-03-21T05:17:22;16.90;92.40
58519;DHT22;44310;48.106;12.008;2023-03-21T05:19:51;16.90;92.30
58519;DHT22;44310;48.106;12.008;2023-03-21T05:22:19;16.80;92.10
58519;DHT22;44310;48.106;12.008;2023-03-21T05:24:46;15.90;91.90
58519;DHT22;44310;48.106;12.008;2023-03-21T05:27:17;16.70;92.00
58519;DHT22;44310;48.106;12.008;2023-03-21T05:30:02;16.80;92.00
58519;DHT22;44310;48.106;12.008;2023-03-21T05:32:29;16.70;91.80
58519;DHT22;44310;48.106;12.008;2023-03-21T05:34:57;16.80;91.80
58519;DHT22;44310;48.106;12.008;2023-03-21T05:37:24;16.70;91.70
58519;DHT22;44310;48.106;12.008;2023-03-21T05:39:51;16.70;91.80
58519;DHT22;44310;48.106;12.008;2023-03-21T05:42:19;16.70;91.80
58519;DHT22;44310;48.106;12.008;2023-03-21T05:44:46;16.70;91.80
58519;DHT22;44310;48.106;12.008;2023-03-21T05:47:14;17.10;92.00
58519;DHT22;44310;48.106;12.008;2023-03-21T05:49:42;16.80;92.20
58519;DHT22;44310;48.106;12.008;2023-03-21T05:52:10;16.80;92.10
58519;DHT22;44310;48.106;12.008;2023-03-21T05:54:37;16.80;92.00
58519;DHT22;44310;48.106;12.008;2023-03-21T05:57:04;16.80;91.90
58519;DHT22;44310;48.106;12.008;2023-03-21T05:59:32;16.80;91.90
58519;DHT22;44310;48.106;12.008;2023-03-21T06:01:59;16.80;91.90
58519;DHT22;44310;48.106;12.008;2023-03-21T06:04:26;16.80;91.90
58519;DHT22;44310;48.106;12.008;2023-03-21T06:06:54;16.70;91.80
58519;DHT22;44310;48.106;12.008;2023-03-21T06:09:21;17.30;91.90
58519;DHT22;44310;48.106;12.008;2023-03-21T06:11:51;16.80;91.70
58519;DHT22;44310;48.106;12.008;2023-03-21T06:14:19;16.80;91.70
58519;DHT22;44310;48.106;12.008;2023-03-21T06:16:47;17.20;91.80
58519;DHT22;44310;48.106;12.008;2023-03-21T06:19:14;16.80;91.70
58519;DHT22;44310;48.106;12.008;2023-03-21T06:21:41;16.80;91.60
58519;DHT22;44310;48.106;12.008;2023-03-21T06:24:09;16.80;91.50
58519;DHT22;44310;48.106;12.008;2023-03-21T06:26:36;16.80;91.50
58519;DHT22;44310;48.106;12.008;2023-03-21T06:29:04;16.80;91.50
58519;DHT22;44310;48.106;12.008;2023-03-21T06:31:31;16.80;91.50
58519;DHT22;44310;48.106;12.008;2023-03-21T06:33:58;16.80;91.40
58519;DHT22;44310;48.106;12.008;2023-03-21T06:36:25;16.80;91.40
58519;DHT22;44310;48.106;12.008;2023-03-21T06:38:52;16.80;91.30
58519;DHT22;44310;48.106;12.008;2023-03-21T06:41:21;16.80;91.20
58519;DHT22;44310;48.106;12.008;2023-03-21T06:43:48;17.40;91.30
58519;DHT22;44310;48.106;12.008;2023-03-21T06:46:15;16.80;91.10
58519;DHT22;44310;48.106;12.008;2023-03-21T06:48:42;16.80;91.20
58519;DHT22;44310;48.106;12.008;2023-03-21T06:51:14;16.20;91.10
58519;DHT22;44310;48.106;12.008;2023-03-21T06:53:41;16.90;91.20
58519;DHT22;44310;48.106;12.008;2023-03-21T06:56:10;16.80;91.10
58519;DHT22;44310;48.106;12.008;2023-03-21T06:58:37;16.80;91.00
58519;DHT22;44310;48.106;12.008;2023-03-21T07:01:05;16.80;90.90
58519;DHT22;44310;48.106;12.008;2023-03-21T07:03:33;16.80;90.90
58519;DHT22;44310;48.106;12.008;2023-03-21T07:06:09;16.90;90.90
58519;DHT22;44310;48.106;12.008;2023-03-21T07:08:38;16.90;90.90
58519;DHT22;44310;48.106;12.008;2023-03-21T07:11:06;16.90;90.80
58519;DHT22;44310;48.106;12.008;2023-03-21T07:13:33;16.80;90.80
58519;DHT22;44310;48.106;12.008;2023-03-21T07:16:00;16.80;90.90
58519;DHT22;44310;48.106;12.008;2023-03-21T07:18:27;16.80;91.10
58519;DHT22;44310;48.106;12.008;2023-03-21T07:20:54;16.60;90.80
58519;DHT22;44310;48.106;12.008;2023-03-21T07:23:23;16.90;90.90
58519;DHT22;44310;48.106;12.008;2023-03-21T07:25:51;16.80;90.90
58519;DHT22;44310;48.106;12.008;2023-03-21T07:28:20;16.80;91.00
58519;DHT22;44310;48.106;12.008;2023-03-21T07:30:55;16.60;90.80
58519;DHT22;44310;48.106;12.008;2023-03-21T07:33:23;16.80;90.80
58519;DHT22;44310;48.106;12.008;2023-03-21T07:35:52;16.90;90.80
58519;DHT22;44310;48.106;12.008;2023-03-21T07:38:20;16.80;90.70
58519;DHT22;44310;48.106;12.008;2023-03-21T07:40:47;16.80;90.90
58519;DHT22;44310;48.106;12.008;2023-03-21T07:43:16;16.80;90.60
58519;DHT22;44310;48.106;12.008;2023-03-21T07:45:48;16.80;90.60
58519;DHT22;44310;48.106;12.008;2023-03-21T07:48:15;16.80;90.70
58519;DHT22;44310;48.106;12.008;2023-03-21T07:50:43;16.80;90.80
58519;DHT22;44310;48.106;12.008;2023-03-21T07:53:11;16.90;91.00
58519;DHT22;44310;48.106;12.008;2023-03-21T07:55:38;16.90;91.10
58519;DHT22;44310;48.106;12.008;2023-03-21T07:58:05;16.90;91.20
58519;DHT22;44310;48.106;12.008;2023-03-21T08:00:33;16.90;91.20
58519;DHT22;44310;48.106;12.008;2023-03-21T08:03:00;16.90;91.30
58519;DHT22;44310;48.106;12.008;2023-03-21T08:05:31;16.50;91.20
58519;DHT22;44310;48.106;12.008;2023-03-21T08:07:59;16.90;91.30
58519;DHT22;44310;48.106;12.008;2023-03-21T08:10:27;16.90;91.40
58519;DHT22;44310;48.106;12.008;2023-03-21T08:12:54;16.90;91.40
58519;DHT22;44310;48.106;12.008;2023-03-21T08:15:21;17.20;91.40
58519;DHT22;44310;48.106;12.008;2023-03-21T08:17:48;16.90;91.40
58519;DHT22;44310;48.106;12.008;2023-03-21T08:20:19;16.50;91.30
58519;DHT22;44310;48.106;12.008;2023-03-21T08:22:48;16.90;91.40
58519;DHT22;44310;48.106;12.008;2023-03-21T08:25:17;17.60;91.70
58519;DHT22;44310;48.106;12.008;2023-03-21T08:27:45;16.90;91.40
58519;DHT22;44310;48.106;12.008;2023-03-21T08:30:15;16.90;91.40
58519;DHT22;44310;48.106;12.008;2023-03-21T08:32:43;16.90;91.40
58519;DHT22;44310;48.106;12.008;2023-03-21T08:35:11;16.80;91.40
58519;DHT22;44310;48.106;12.008;2023-03-21T08:37:40;16.80;91.40
58519;DHT22;44310;48.106;12.008;2023-03-21T08:40:12;16.70;91.40
58519;DHT22;44310;48.106;12.008;2023-03-21T08:42:42;16.80;91.50
58519;DHT22;44310;48.106;12.008;2023-03-21T08:45:11;16.30;91.70
58519;DHT22;44310;48.106;12.008;2023-03-21T08:47:38;17.00;91.90
58519;DHT22;44310;48.106;12.008;2023-03-21T08:50:07;16.90;91.90
58519;DHT22;44310;48.106;12.008;2023-03-21T08:52:34;16.90;91.80
58519;DHT22;44310;48.106;12.008;2023-03-21T08:55:03;16.90;91.70
58519;DHT22;44310;48.106;12.008;2023-03-21T08:57:30;16.90;91.60
58519;DHT22;44310;48.106;12.008;2023-03-21T08:59:58;17.00;91.60
58519;DHT22;44310;48.106;12.008;2023-03-21T09:02:25;17.80;91.80
58519;DHT22;44310;48.106;12.008;2023-03-21T09:04:52;16.90;91.50
58519;DHT22;44310;48.106;12.008;2023-03-21T09:07:20;16.90;91.50
58519;DHT22;44310;48.106;12.008;2023-03-21T09:09:48;16.90;91.50
58519;DHT22;44310;48.106;12.008;2023-03-21T09:12:38;16.90;91.40
58519;DHT22;44310;48.106;12.008;2023-03-21T09:15:08;16.90;91.40
58519;DHT22;44310;48.106;12.008;2023-03-21T09:17:36;16.90;91.50
58519;DHT22;44310;48.106;12.008;2023-03-21T09:20:05;16.90;91.50
58519;DHT22;44310;48.106;12.008;2023-03-21T09:22:40;16.90;91.60
58519;DHT22;44310;48.106;12.008;2023-03-21T09:25:08;16.90;91.50
58519;DHT22;44310;48.106;12.008;2023-03-21T09:27:37;16.90;91.30
58519;DHT22;44310;48.106;12.008;2023-03-21T09:30:05;16.70;86.20
58519;DHT22;44310;48.106;12.008;2023-03-21T09:32:33;16.40;88.30
58519;DHT22;44310;48.106;12.008;2023-03-21T09:35:01;16.30;86.20
58519;DHT22;44310;48.106;12.008;2023-03-21T09:37:33;16.20;86.90
58519;DHT22;44310;48.106;12.008;2023-03-21T09:43:02;16.30;86.20
58519;DHT22;44310;48.106;12.008;2023-03-21T09:45:42;16.00;86.40
58519;DHT22;44310;48.106;12.008;2023-03-21T09:48:23;16.50;86.50
58519;DHT22;44310;48.106;12.008;2023-03-21T09:50:56;16.50;86.30
58519;DHT22;44310;48.106;12.008;2023-03-21T09:53:28;16.60;86.20
58519;DHT22;44310;48.106;12.008;2023-03-21T09:55:59;16.70;85.70
58519;DHT22;44310;48.106;12.008;2023-03-21T09:58:47;17.40;86.50
58519;DHT22;44310;48.106;12.008;2023-03-21T10:01:22;17.00;86.00
58519;DHT22;44310;48.106;12.008;2023-03-21T10:04:10;16.80;85.60
58519;DHT22;44310;48.106;12.008;2023-03-21T10:06:39;16.80;86.00
58519;DHT22;44310;48.106;12.008;2023-03-21T10:09:15;16.90;85.90
58519;DHT22;44310;48.106;12.008;2023-03-21T10:11:51;16.90;84.70
58519;DHT22;44310;48.106;12.008;2023-03-21T10:14:35;16.70;85.10
58519;DHT22;44310;48.106;12.008;2023-03-21T10:20:00;16.10;74.40
58519;DHT22;44310;48.106;12.008;2023-03-21T10:22:38;15.80;75.90
58519;DHT22;44310;48.106;12.008;2023-03-21T10:25:07;15.50;75.00
58519;DHT22;44310;48.106;12.008;2023-03-21T10:27:38;15.30;75.10
58519;DHT22;44310;48.106;12.008;2023-03-21T10:30:05;15.40;75.20
58519;DHT22;44310;48.106;12.008;2023-03-21T10:32:34;15.30;74.20
58519;DHT22;44310;48.106;12.008;2023-03-21T10:35:02;15.30;76.00
58519;DHT22;44310;48.106;12.008;2023-03-21T10:37:31;15.50;78.20
58519;DHT22;44310;48.106;12.008;2023-03-21T10:39:58;15.70;79.90
58519;DHT22;44310;48.106;12.008;2023-03-21T10:42:28;16.00;80.80
58519;DHT22;44310;48.106;12.008;2023-03-21T10:44:56;16.00;80.90
58519;DHT22;44310;48.106;12.008;2023-03-21T10:47:26;16.10;81.10
58519;DHT22;44310;48.106;12.008;2023-03-21T10:49:54;16.20;81.10
58519;DHT22;44310;48.106;12.008;2023-03-21T10:52:43;16.20;81.90
58519;DHT22;44310;48.106;12.008;2023-03-21T10:55:29;16.20;81.50
58519;DHT22;44310;48.106;12.008;2023-03-21T10:58:13;15.80;81.50
58519;DHT22;44310;48.106;12.008;2023-03-21T11:00:45;16.50;82.40
58519;DHT22;44310;48.106;12.008;2023-03-21T11:03:29;16.90;82.90
58519;DHT22;44310;48.106;12.008;2023-03-21T11:06:21;16.30;82.30
58519;DHT22;44310;48.106;12.008;2023-03-21T11:08:59;16.50;82.60
58519;DHT22;44310;48.106;12.008;2023-03-21T11:11:36;16.70;82.90
58519;DHT22;44310;48.106;12.008;2023-03-21T11:14:06;16.30;82.70
58519;DHT22;44310;48.106;12.008;2023-03-21T11:19:15;16.40;82.30
58519;DHT22;44310;48.106;12.008;2023-03-21T11:21:43;16.40;82.30
58519;DHT22;44310;48.106;12.008;2023-03-21T11:24:13;16.40;82.00
58519;DHT22;44310;48.106;12.008;2023-03-21T11:26:43;16.30;82.00
58519;DHT22;44310;48.106;12.008;2023-03-21T11:29:38;16.40;82.10
58519;DHT22;44310;48.106;12.008;2023-03-21T11:32:25;16.30;82.10
58519;DHT22;44310;48.106;12.008;2023-03-21T11:34:59;16.40;82.00
58519;DHT22;44310;48.106;12.008;2023-03-21T11:37:30;15.80;81.40
58519;DHT22;44310;48.106;12.008;2023-03-21T11:42:57;16.30;81.30
58519;DHT22;44310;48.106;12.008;2023-03-21T11:45:35;16.00;81.20
58519;DHT22;44310;48.106;12.008;2023-03-21T11:48:12;16.30;81.20
58519;DHT22;44310;48.106;12.008;2023-03-21T11:50:45;16.80;81.70
58519;DHT22;44310;48.106;12.008;2023-03-21T11:58:40;16.40;81.00
58519;DHT22;44310;48.106;12.008;2023-03-21T12:03:51;16.40;81.40
58519;DHT22;44310;48.106;12.008;2023-03-21T12:06:34;16.40;81.40
58519;DHT22;44310;48.106;12.008;2023-03-21T12:09:26;16.40;81.30
58519;DHT22;44310;48.106;12.008;2023-03-21T12:14:50;16.40;81.30
58519;DHT22;44310;48.106;12.008;2023-03-21T12:17:31;16.40;81.30
58519;DHT22;44310;48.106;12.008;2023-03-21T12:20:36;16.40;81.30
58519;DHT22;44310;48.106;12.008;2023-03-21T12:23:15;16.30;81.30
58519;DHT22;44310;48.106;12.008;2023-03-21T12:25:53;16.40;81.50
58519;DHT22;44310;48.106;12.008;2023-03-21T12:28:34;16.40;81.50
58519;DHT22;44310;48.106;12.008;2023-03-21T12:31:14;16.40;81.40
58519;DHT22;44310;48.106;12.008;2023-03-21T12:34:11;16.40;81.10
58519;DHT22;44310;48.106;12.008;2023-03-21T12:39:33;16.40;80.90
58519;DHT22;44310;48.106;12.008;2023-03-21T12:42:34;16.40;80.80
58519;DHT22;44310;48.106;12.008;2023-03-21T12:45:27;16.40;80.80
58519;DHT22;44310;48.106;12.008;2023-03-21T12:48:43;16.40;80.50
58519;DHT22;44310;48.106;12.008;2023-03-21T12:51:19;16.50;80.40
58519;DHT22;44310;48.106;12.008;2023-03-21T12:54:43;16.50;80.50
58519;DHT22;44310;48.106;12.008;2023-03-21T12:56:56;16.50;80.60
58519;DHT22;44310;48.106;12.008;2023-03-21T12:59:35;16.50;80.30
58519;DHT22;44310;48.106;12.008;2023-03-21T13:07:49;16.50;79.80
58519;DHT22;44310;48.106;12.008;2023-03-21T13:10:20;16.50;80.10
58519;DHT22;44310;48.106;12.008;2023-03-21T13:22:10;16.60;78.30
58519;DHT22;44310;48.106;12.008;2023-03-21T13:24:42;16.60;79.00
58519;DHT22;44310;48.106;12.008;2023-03-21T13:27:30;16.50;78.10
58519;DHT22;44310;48.106;12.008;2023-03-21T13:32:45;16.60;77.90
58519;DHT22;44310;48.106;12.008;2023-03-21T13:35:23;16.30;78.10
58519;DHT22;44310;48.106;12.008;2023-03-21T13:38:05;16.70;78.30
58519;DHT22;44310;48.106;12.008;2023-03-21T13:41:07;16.60;78.50
58519;DHT22;44310;48.106;12.008;2023-03-21T13:54:01;15.40;77.10
58519;DHT22;44310;48.106;12.008;2023-03-21T13:56:56;16.30;76.60
58519;DHT22;44310;48.106;12.008;2023-03-21T13:59:41;16.60;76.60
58519;DHT22;44310;48.106;12.008;2023-03-21T14:02:31;16.50;76.80
58519;DHT22;44310;48.106;12.008;2023-03-21T14:05:05;16.60;76.80
58519;DHT22;44310;48.106;12.008;2023-03-21T14:07:38;16.50;77.20
58519;DHT22;44310;48.106;12.008;2023-03-21T14:10:34;16.60;77.30
58519;DHT22;44310;48.106;12.008;2023-03-21T14:13:07;16.50;77.20
58519;DHT22;44310;48.106;12.008;2023-03-21T14:15:45;16.60;77.20
58519;DHT22;44310;48.106;12.008;2023-03-21T14:18:23;16.60;77.30
58519;DHT22;44310;48.106;12.008;2023-03-21T14:21:16;16.60;77.80
58519;DHT22;44310;48.106;12.008;2023-03-21T14:23:57;16.60;77.30
58519;DHT22;44310;48.106;12.008;2023-03-21T14:26:26;16.60;77.10
58519;DHT22;44310;48.106;12.008;2023-03-21T14:28:55;16.60;77.10
58519;DHT22;44310;48.106;12.008;2023-03-21T14:31:22;16.60;77.00
58519;DHT22;44310;48.106;12.008;2023-03-21T14:33:51;16.60;77.20
58519;DHT22;44310;48.106;12.008;2023-03-21T14:36:23;16.60;77.10
58519;DHT22;44310;48.106;12.008;2023-03-21T14:39:13;16.70;77.30
58519;DHT22;44310;48.106;12.008;2023-03-21T14:41:48;16.60;77.30
58519;DHT22;44310;48.106;12.008;2023-03-21T14:44:25;16.60;77.30
58519;DHT22;44310;48.106;12.008;2023-03-21T14:47:18;16.60;77.30
58519;DHT22;44310;48.106;12.008;2023-03-21T14:49:45;16.60;77.50
58519;DHT22;44310;48.106;12.008;2023-03-21T14:52:30;16.60;77.80
58519;DHT22;44310;48.106;12.008;2023-03-21T14:54:59;16.60;78.10
58519;DHT22;44310;48.106;12.008;2023-03-21T14:57:30;16.50;78.20
58519;DHT22;44310;48.106;12.008;2023-03-21T15:00:01;16.50;78.40
58519;DHT22;44310;48.106;12.008;2023-03-21T15:02:39;16.50;78.50
58519;DHT22;44310;48.106;12.008;2023-03-21T15:10:34;16.50;78.80
58519;DHT22;44310;48.106;12.008;2023-03-21T15:13:15;16.40;79.40
58519;DHT22;44310;48.106;12.008;2023-03-21T15:15:44;16.40;79.10
58519;DHT22;44310;48.106;12.008;2023-03-21T15:18:16;16.70;78.90
58519;DHT22;44310;48.106;12.008;2023-03-21T15:20:45;16.40;78.80
58519;DHT22;44310;48.106;12.008;2023-03-21T15:23:22;16.40;78.80
58519;DHT22;44310;48.106;12.008;2023-03-21T15:25:50;16.50;79.00
58519;DHT22;44310;48.106;12.008;2023-03-21T15:28:18;16.40;79.00
58519;DHT22;44310;48.106;12.008;2023-03-21T15:30:47;16.60;79.10
58519;DHT22;44310;48.106;12.008;2023-03-21T15:33:17;16.40;79.10
58519;DHT22;44310;48.106;12.008;2023-03-21T15:35:51;16.40;79.30
58519;DHT22;44310;48.106;12.008;2023-03-21T15:38:33;16.50;79.30
58519;DHT22;44310;48.106;12.008;2023-03-21T15:41:21;16.40;79.10
58519;DHT22;44310;48.106;12.008;2023-03-21T15:44:12;16.40;79.20
58519;DHT22;44310;48.106;12.008;2023-03-21T15:51:50;16.40;79.00
58519;DHT22;44310;48.106;12.008;2023-03-21T15:54:27;16.40;78.70
58519;DHT22;44310;48.106;12.008;2023-03-21T15:57:00;16.90;78.90
58519;DHT22;44310;48.106;12.008;2023-03-21T15:59:40;16.30;78.60
58519;DHT22;44310;48.106;12.008;2023-03-21T16:02:15;16.40;78.60
58519;DHT22;44310;48.106;12.008;2023-03-21T16:05:01;16.30;78.60
58519;DHT22;44310;48.106;12.008;2023-03-21T16:07:32;15.60;78.10
58519;DHT22;44310;48.106;12.008;2023-03-21T16:10:02;16.30;78.40
58519;DHT22;44310;48.106;12.008;2023-03-21T16:12:30;16.30;78.40
58519;DHT22;44310;48.106;12.008;2023-03-21T16:14:57;16.30;78.80
58519;DHT22;44310;48.106;12.008;2023-03-21T16:17:32;16.10;78.30
58519;DHT22;44310;48.106;12.008;2023-03-21T16:20:01;16.30;78.30
58519;DHT22;44310;48.106;12.008;2023-03-21T16:22:29;16.30;78.30
58519;DHT22;44310;48.106;12.008;2023-03-21T16:25:00;16.70;78.20
58519;DHT22;44310;48.106;12.008;2023-03-21T16:27:27;16.30;78.20
58519;DHT22;44310;48.106;12.008;2023-03-21T16:29:54;16.40;78.60
58519;DHT22;44310;48.106;12.008;2023-03-21T16:32:22;16.40;78.60
58519;DHT22;44310;48.106;12.008;2023-03-21T16:34:49;16.40;78.70
58519;DHT22;44310;48.106;12.008;2023-03-21T16:37:19;16.20;78.60
58519;DHT22;44310;48.106;12.008;2023-03-21T16:39:47;16.40;78.60
58519;DHT22;44310;48.106;12.008;2023-03-21T16:42:14;16.20;78.10
58519;DHT22;44310;48.106;12.008;2023-03-21T16:44:41;16.30;75.20
58519;DHT22;44310;48.106;12.008;2023-03-21T16:47:19;16.20;76.60
58519;DHT22;44310;48.106;12.008;2023-03-21T16:49:46;16.00;77.20
58519;DHT22;44310;48.106;12.008;2023-03-21T16:52:14;16.10;77.10
58519;DHT22;44310;48.106;12.008;2023-03-21T16:54:41;16.10;77.20
58519;DHT22;44310;48.106;12.008;2023-03-21T16:57:24;16.10;75.60
58519;DHT22;44310;48.106;12.008;2023-03-21T16:59:55;16.20;75.40
58519;DHT22;44310;48.106;12.008;2023-03-21T17:02:23;16.00;76.00
58519;DHT22;44310;48.106;12.008;2023-03-21T17:04:50;16.00;75.40
58519;DHT22;44310;48.106;12.008;2023-03-21T17:07:17;16.10;76.80
58519;DHT22;44310;48.106;12.008;2023-03-21T17:09:45;16.00;77.10
58519;DHT22;44310;48.106;12.008;2023-03-21T17:12:14;16.00;75.80
58519;DHT22;44310;48.106;12.008;2023-03-21T17:14:43;16.00;75.60
58519;DHT22;44310;48.106;12.008;2023-03-21T17:17:12;16.00;76.90